| time (UTC) | temp C | wind direction | speed KPH | gust KPH | rain 1hr cm | rain 24hr cm | rain mn cm | humidity % | barometer mb |
| 20260510080016 | 11 | 45 | 11.3 | 25.7 | 0.00 | 0.00 | 0.00 | 81 | 1018.7 |
| 20260510073016 | 10 | 45 | 9.7 | 25.7 | 0.00 | 0.00 | 0.00 | 82 | 1018.7 |
| 20260510070016 | 10 | 45 | 9.7 | 24.1 | 0.00 | 0.00 | 0.00 | 83 | 1018.7 |
| 20260510063016 | 10 | 45 | 9.7 | 24.1 | 0.00 | 0.00 | 0.00 | 83 | 1018.7 |
| 20260510060016 | 10 | 45 | 8.0 | 20.9 | 0.00 | 0.00 | 0.00 | 83 | 1018.5 |
| 20260510053015 | 10 | 45 | 8.0 | 24.1 | 0.00 | 0.00 | 0.00 | 83 | 1018.6 |
| 20260510050016 | 10 | 23 | 8.0 | 20.9 | 0.00 | 0.00 | 0.00 | 83 | 1018.6 |
| 20260510043016 | 10 | 23 | 8.0 | 17.7 | 0.00 | 0.00 | 0.00 | 81 | 1018.5 |
| 20260510040015 | 11 | 45 | 8.0 | 22.5 | 0.00 | 0.00 | 0.00 | 79 | 1018.7 |
| 20260510033017 | 11 | 45 | 6.4 | 20.9 | 0.00 | 0.00 | 0.00 | 76 | 1018.8 |
| 20260510030017 | 11 | 45 | 6.4 | 20.9 | 0.00 | 0.00 | 0.00 | 70 | 1019.0 |
| 20260510023017 | 12 | 45 | 4.8 | 16.1 | 0.00 | 0.00 | 0.00 | 68 | 1018.7 |
| 20260510020017 | 12 | 45 | 4.8 | 16.1 | 0.00 | 0.00 | 0.00 | 65 | 1018.5 |
| 20260510013037 | 12 | 45 | 4.8 | 20.9 | 0.00 | 0.00 | 0.00 | 65 | 1018.7 |
| 20260510010017 | 13 | 68 | 4.8 | 16.1 | 0.00 | 0.00 | 0.00 | 62 | 1018.8 |
| 20260510003017 | 13 | 68 | 3.2 | 12.9 | 0.00 | 0.00 | 0.00 | 59 | 1018.9 |
| 20260510000017 | 13 | 0.0 | 4.8 | 0.00 | 0.00 | 0.00 | 59 | 1018.9 | |
| 20260509233017 | 13 | 0.0 | 6.4 | 0.00 | 0.00 | 0.00 | 60 | 1018.9 | |
| 20260509230017 | 14 | 68 | 1.6 | 9.7 | 0.00 | 0.00 | 0.00 | 60 | 1018.9 |
| 20260509223017 | 15 | 68 | 4.8 | 17.7 | 0.00 | 0.00 | 0.00 | 60 | 1018.5 |
| 20260509220017 | 15 | 68 | 6.4 | 17.7 | 0.00 | 0.00 | 0.00 | 58 | 1018.4 |
| 20260509213017 | 16 | 68 | 6.4 | 17.7 | 0.00 | 0.00 | 0.00 | 57 | 1018.2 |
| 20260509210017 | 16 | 68 | 4.8 | 20.9 | 0.00 | 0.00 | 0.00 | 60 | 1018.1 |
| 20260509203017 | 16 | 68 | 4.8 | 11.3 | 0.00 | 0.00 | 0.00 | 62 | 1017.7 |
| 20260509200017 | 16 | 68 | 1.6 | 6.4 | 0.00 | 0.00 | 0.00 | 65 | 1017.6 |
| 20260509193017 | 17 | 0.0 | 3.2 | 0.00 | 0.00 | 0.00 | 65 | 1017.5 | |
| 20260509190017 | 18 | 0.0 | 4.8 | 0.00 | 0.00 | 0.00 | 61 | 1017.3 | |
| 20260509183036 | 19 | 90 | 1.6 | 6.4 | 0.00 | 0.00 | 0.00 | 57 | 1017.3 |
| 20260509180016 | 20 | 90 | 1.6 | 8.0 | 0.00 | 0.00 | 0.00 | 56 | 1017.4 |
| 20260509173017 | 20 | 113 | 3.2 | 14.5 | 0.00 | 0.00 | 0.00 | 59 | 1017.0 |
| 20260509170016 | 20 | 135 | 1.6 | 9.7 | 0.00 | 0.00 | 0.00 | 55 | 1017.2 |
| 20260509163017 | 20 | 225 | 3.2 | 11.3 | 0.00 | 0.00 | 0.00 | 58 | 1017.2 |
| 20260509160036 | 20 | 225 | 1.6 | 8.0 | 0.00 | 0.00 | 0.00 | 59 | 1017.2 |
| 20260509153036 | 19 | 135 | 1.6 | 8.0 | 0.00 | 0.00 | 0.00 | 60 | 1017.3 |
| 20260509150016 | 19 | 135 | 3.2 | 12.9 | 0.00 | 0.00 | 0.00 | 61 | 1017.5 |
| 20260509143036 | 21 | 90 | 4.8 | 20.9 | 0.00 | 0.00 | 0.00 | 52 | 1017.8 |
| 20260509140016 | 21 | 135 | 6.4 | 19.3 | 0.00 | 0.00 | 0.00 | 51 | 1017.7 |
| 20260509133016 | 21 | 90 | 8.0 | 19.3 | 0.00 | 0.00 | 0.00 | 50 | 1017.7 |
| 20260509130016 | 21 | 90 | 9.7 | 24.1 | 0.00 | 0.00 | 0.00 | 52 | 1017.8 |
| 20260509123016 | 20 | 135 | 9.7 | 24.1 | 0.00 | 0.00 | 0.00 | 56 | 1018.2 |
| 20260509120016 | 20 | 135 | 9.7 | 22.5 | 0.00 | 0.00 | 0.00 | 56 | 1018.4 |
| 20260509113016 | 19 | 90 | 8.0 | 20.9 | 0.00 | 0.00 | 0.00 | 56 | 1018.7 |
| 20260509110016 | 19 | 68 | 9.7 | 27.4 | 0.00 | 0.00 | 0.00 | 57 | 1018.9 |
| 20260509103016 | 18 | 90 | 8.0 | 20.9 | 0.00 | 0.00 | 0.00 | 62 | 1019.2 |
| 20260509100016 | 17 | 90 | 6.4 | 17.7 | 0.00 | 0.00 | 0.00 | 66 | 1019.2 |
| 20260509093016 | 17 | 68 | 6.4 | 17.7 | 0.00 | 0.00 | 0.00 | 68 | 1019.3 |
| 20260509090016 | 16 | 68 | 4.8 | 12.9 | 0.00 | 0.00 | 0.00 | 72 | 1019.4 |
| 20260509083016 | 15 | 68 | 3.2 | 12.9 | 0.00 | 0.00 | 0.00 | 74 | 1019.5 |